• Join FlightAware (Why Join?)
  • Login
  • US Flag 
07:41AM EDT


 

Airport Tracker/Info


-or-


 

Live Flight TrackerFlight Track Log ✈ DAL6091 ✈ 05-May-2013 ✈ KDTW - KIND

Flight Track Log - Related Links

Times and Time Zones

All times are in EDT time to prevent confusion due to time zone crossing. See the DAL6091 flight status page for this flight to view local times or setup timezone preferences in your user account.

Time Position Orientation Groundspeed Altitude Reporting Facility
EDT Latitude Longitude Course Direction KTS MPH feet Rate Location/Type
04:29PM 42.2375 -83.3372 270° West 166 191 1,500  Level Cleveland Center
04:30PM 42.2831 -83.3450 353° North 219 252 3,100 1,980 Climbing Cleveland Center
04:31PM 42.3511 -83.3758 341° North 270 311 5,400 2,160 Climbing Cleveland Center
04:32PM 41.8553 -83.6422 210° Southwest  Level FlightAware Approximate
04:32PM 42.3592 -83.4719 277° West 285 328 7,600  Level Cleveland Center
04:32PM 42.3517 -83.5306 260° West 298 343 8,900 2,040 Climbing Cleveland Center
04:33PM 41.7656 -83.7120 210° Southwest  Level FlightAware Approximate
04:33PM 42.3200 -83.6189 244° Southwest 290 334 10,800  Level Cleveland Center
04:34PM 41.6833 -83.7821 270° West  Level FlightAware Approximate
04:34PM 42.2758 -83.7150 238° Southwest 296 341 12,200  Level Cleveland Center
04:35PM 42.2089 -83.7958 222° Southwest 311 358 13,000 660 Climbing Cleveland Center
04:36PM 42.1253 -83.8000 182° South 293 337 13,600 1,260 Climbing Cleveland Center
04:37PM 42.0400 -83.7986 179° South 293 337 15,600 1,800 Climbing Cleveland Center
04:38PM 41.9567 -83.7972 179° South 298 343 17,300 1,200 Climbing Cleveland Center
04:39PM 41.8650 -83.7953 179° South 310 357 18,000 300 Climbing Cleveland Center
04:40PM 41.7669 -83.7933 179° South 336 387 18,000  Level Cleveland Center
04:41PM 41.6731 -83.7997 183° South 341 392 18,000  Level Cleveland Center
04:42PM 41.5900 -83.8622 209° Southwest 341 392 18,000  Level Cleveland Center
04:43PM 41.5064 -83.9328 212° Southwest 346 398 18,000  Level Cleveland Center
04:44PM 41.4192 -83.9975 209° Southwest 358 412 18,000  Level Cleveland Center
04:45PM 41.3314 -84.0703 212° Southwest 364 419 18,000  Level Cleveland Center
04:46PM 41.2519 -84.1489 217° Southwest 359 413 18,000  Level Cleveland Center
04:47PM 41.2056 -84.3033 248° West 378 435 18,000  Level Chicago Center
04:48PM 41.1728 -84.4339 252° West 374 430 18,000  Level Chicago Center
04:49PM 41.1403 -84.5636 252° West 369 425 18,000  Level Chicago Center
04:50PM 41.1064 -84.6956 251° West 375 432 18,000  Level Chicago Center
04:51PM 41.0717 -84.8289 251° West 381 438 18,000  Level Chicago Center
04:53PM 41.0372 -84.9600 251° West 378 435 18,000  Level Chicago Center
04:54PM 40.9828 -85.1006 243° Southwest 370 426 18,000  Level Chicago Center
04:55PM 40.8936 -85.1450 201° Southwest 349 402 18,000  Level Chicago Center
04:56PM 40.8008 -85.1797 196° South 346 398 18,000  Level Chicago Center
04:57PM 40.7072 -85.2156 196° South 347 399 18,000  Level Chicago Center
04:58PM 40.6097 -85.2525 196° South 345 397 18,000 -60 Level Chicago Center
04:59PM 40.5175 -85.2872 196° South 345 397 17,900 -660 Descending Chicago Center
05:00PM 40.4267 -85.3211 196° South 341 392 16,700 -1,680 Descending Chicago Center
05:01PM 40.3228 -85.3589 195° South 328 377 14,400 -2,040 Descending Chicago Center
05:02PM 40.2444 -85.3944 199° South 306 352 12,600 -1,560 Descending Chicago Center
05:03PM 40.1958 -85.4883 236° Southwest 311 358 11,200 -780 Descending Chicago Center
05:04PM 40.1514 -85.5903 240° Southwest 321 369 11,100 -120 Descending Chicago Center
05:05PM 40.1064 -85.6956 241° Southwest 329 379 11,000 -60 Descending Chicago Center
05:06PM 40.0667 -85.7833 239° Southwest 344 396 11,000  Level Indianapolis TRACON
05:06PM 40.0597 -85.8058 248° West 343 395 11,000  Level Indianapolis Center
05:07PM 40.0039 -85.9333 240° Southwest 339 390 11,000  Level Indianapolis Center
05:09PM 39.8833 -86.0500 217° Southwest 318 366 11,000  Level Indianapolis TRACON
05:09PM 39.8586 -86.0669 208° Southwest 319 367 11,000 -480 Level Indianapolis Center
05:10PM 39.7844 -86.1314 214° Southwest 320 368 10,400 -1,020 Descending Indianapolis Center
05:11PM 39.7333 -86.1667 208° Southwest 295 339 9,400 -1,680 Descending Indianapolis TRACON
05:12PM 39.6667 -86.2333 218° Southwest 281 323 7,600 -1,620 Descending Indianapolis TRACON
05:13PM 39.6000 -86.3000 218° Southwest 276 318 6,100 -1,440 Descending Indianapolis TRACON
05:13PM 39.5947 -86.3175 249° West 278 320 5,600 -1,500 Descending Indianapolis Center
05:14PM 39.5489 -86.3933 232° Southwest 268 308 4,000 -1,260 Descending Indianapolis Center
05:15PM 39.5472 -86.4747 269° West 265 305 3,100 -480 Descending Indianapolis Center
05:16PM 39.5969 -86.4350 32° Northeast 211 243 3,100 -240 Level Indianapolis Center
05:17PM 39.6328 -86.3906 44° Northeast 192 221 2,700 -600 Descending Indianapolis Center
05:18PM 39.6500 -86.3667 47° Northeast 150 173 2,300 -840 Descending Indianapolis TRACON
05:19PM 39.6667 -86.3333 57° Northeast 122 140 1,600 -720 Descending Indianapolis TRACON
05:20PM 39.7000 -86.3167 21° North 126 145 1,000 -720 Descending Indianapolis TRACON